Time;durP1;ratioP1;P1;durP2;ratioP2;P2;SDS_P1;SDS_P2;PMS_P1;PMS_P2;Temp;Humidity;BMP_temperature;BMP_pressure;BME280_temperature;BME280_humidity;BME280_pressure;Samples;Min_cycle;Max_cycle;Signal;HPM_P1;HPM_P2
2022/08/07 00:01:32;;;;;;;;;4.00;4.00;;;;;19.87;40.39;101946.97;5081280;28;45378;-76
2022/08/07 00:03:59;;;;;;;;;4.67;4.67;;;;;19.79;40.37;101934.53;5095013;27;45390;-77
2022/08/07 00:06:24;;;;;;;;;6.00;6.00;;;;;19.83;40.55;101943.00;5080124;28;45470;-77
2022/08/07 00:08:50;;;;;;;;;6.33;6.33;;;;;19.79;40.48;101934.53;5080980;28;45321;-76
2022/08/07 00:11:15;;;;;;;;;5.67;5.67;;;;;19.80;40.53;101938.88;5081212;28;46355;-76
2022/08/07 00:13:43;;;;;;;;;6.33;6.33;;;;;19.78;40.46;101935.53;5080744;28;46353;-76
2022/08/07 00:16:08;;;;;;;;;5.00;5.00;;;;;19.79;40.33;101945.31;5084650;27;45323;-76
2022/08/07 00:18:34;;;;;;;;;6.00;6.00;;;;;19.73;40.96;101938.03;5088890;27;46179;-76
2022/08/07 00:21:03;;;;;;;;;5.00;5.00;;;;;19.72;41.04;101953.38;5081148;27;45754;-76
2022/08/07 00:23:29;;;;;;;;;4.00;4.00;;;;;19.65;41.00;101941.75;5079506;28;45353;-76
2022/08/07 00:25:55;;;;;;;;;4.67;4.67;;;;;19.59;41.17;101927.25;5081017;28;45189;-76
2022/08/07 00:28:21;;;;;;;;;3.00;3.00;;;;;19.54;41.20;101927.03;5079001;28;46222;-76
2022/08/07 00:30:46;;;;;;;;;4.00;4.00;;;;;19.58;41.15;101935.53;5080827;28;45296;-76
2022/08/07 00:33:12;;;;;;;;;4.00;4.00;;;;;19.54;40.97;101933.25;5080725;28;45262;-77
2022/08/07 00:35:37;;;;;;;;;3.33;3.00;;;;;19.50;41.48;101932.00;5080907;28;45145;-77
2022/08/07 00:38:03;;;;;;;;;3.00;3.00;;;;;19.43;41.06;101921.19;5079421;28;46962;-76
2022/08/07 00:40:29;;;;;;;;;5.00;5.00;;;;;19.46;41.26;101928.06;5083002;27;47428;-77
2022/08/07 00:42:55;;;;;;;;;5.00;4.33;;;;;19.39;41.57;101919.13;5080977;28;45458;-76
2022/08/07 00:45:21;;;;;;;;;4.00;4.00;;;;;19.39;41.32;101921.81;5079301;28;45389;-76
2022/08/07 00:47:47;;;;;;;;;6.33;4.67;;;;;19.29;42.18;101917.66;5080857;28;45717;-76
2022/08/07 00:50:13;;;;;;;;;3.00;3.00;;;;;19.28;41.75;101921.38;5080431;28;45389;-76
2022/08/07 00:52:38;;;;;;;;;3.00;3.00;;;;;19.24;42.05;101922.81;5080426;28;45333;-77
2022/08/07 00:55:04;;;;;;;;;7.00;5.00;;;;;19.20;41.77;101918.03;5090990;27;45373;-76
2022/08/07 00:57:30;;;;;;;;;3.00;3.00;;;;;19.15;41.79;101911.41;5082745;27;46124;-76
2022/08/07 00:59:56;;;;;;;;;4.00;4.00;;;;;19.11;42.21;101914.72;5080014;28;45375;-76
2022/08/07 01:02:23;;;;;;;;;5.67;5.00;;;;;19.11;42.02;101917.41;5094887;27;45794;-76
2022/08/07 01:04:49;;;;;;;;;4.00;4.00;;;;;19.07;42.57;101918.81;5079389;28;45331;-76
2022/08/07 01:07:15;;;;;;;;;5.33;5.33;;;;;19.04;42.46;101912.78;5080073;28;45451;-77
2022/08/07 01:09:40;;;;;;;;;4.00;4.00;;;;;18.97;42.86;101911.94;5080361;28;45412;-76
2022/08/07 01:12:06;;;;;;;;;6.67;6.67;;;;;18.91;42.99;101904.66;5090604;27;45347;-76
2022/08/07 01:14:32;;;;;;;;;4.00;4.00;;;;;18.87;43.23;101908.81;5080321;28;45371;-76
2022/08/07 01:16:58;;;;;;;;;5.33;5.33;;;;;18.85;42.92;101914.38;5091761;27;46211;-76
2022/08/07 01:19:26;;;;;;;;;5.33;5.33;;;;;18.78;43.21;101895.53;5080700;27;45385;-76
2022/08/07 01:21:53;;;;;;;;;4.00;4.00;;;;;18.78;42.83;101906.31;5080213;28;45469;-76
2022/08/07 01:24:19;;;;;;;;;4.67;4.67;;;;;18.77;43.26;101901.13;5080020;28;45165;-76
2022/08/07 01:26:45;;;;;;;;;4.00;4.00;;;;;18.76;43.52;101891.34;5078711;28;45973;-76
2022/08/07 01:29:11;;;;;;;;;5.00;5.00;;;;;18.67;43.11;101896.94;5079894;28;46530;-76
2022/08/07 01:31:37;;;;;;;;;6.00;3.00;;;;;18.68;43.83;101893.19;5075015;27;45406;-76
2022/08/07 01:34:04;;;;;;;;;4.00;4.00;;;;;18.62;43.56;101885.91;5069885;28;45381;-77
2022/08/07 01:36:30;;;;;;;;;5.00;5.00;;;;;18.52;43.44;101882.75;5079403;28;45340;-76
2022/08/07 01:38:56;;;;;;;;;4.67;4.67;;;;;18.54;43.46;101886.94;5078366;28;47247;-76
2022/08/07 01:41:22;;;;;;;;;5.00;5.00;;;;;18.54;44.04;101892.31;5089155;27;45377;-77
2022/08/07 01:43:49;;;;;;;;;5.00;5.00;;;;;18.53;44.14;101897.91;5079254;28;45278;-76
2022/08/07 01:46:15;;;;;;;;;4.00;4.00;;;;;18.48;43.61;101882.34;5086716;27;45684;-76
2022/08/07 01:48:42;;;;;;;;;4.00;4.00;;;;;18.52;44.16;101896.22;5078016;28;47046;-76
2022/08/07 01:51:11;;;;;;;;;5.33;4.33;;;;;18.52;44.37;101894.38;5079749;28;45460;-76
2022/08/07 01:53:41;;;;;;;;;5.33;5.33;;;;;18.45;44.35;101890.81;5079321;28;45652;-77
2022/08/07 01:56:21;;;;;;;;;4.00;4.00;;;;;18.44;44.77;101891.84;5084273;27;45947;-77
2022/08/07 01:58:56;;;;;;;;;4.00;4.00;;;;;18.45;44.04;101896.19;5078890;27;46996;-76
2022/08/07 02:01:32;;;;;;;;;3.33;3.33;;;;;18.45;44.45;101892.66;5079520;28;45376;-76
2022/08/07 02:04:06;;;;;;;;;5.00;5.00;;;;;18.41;44.70;101893.06;5079598;28;45338;-77
2022/08/07 02:06:34;;;;;;;;;4.00;4.00;;;;;18.37;44.42;101885.59;5086069;27;46349;-76
2022/08/07 02:09:03;;;;;;;;;4.33;4.33;;;;;18.34;44.54;101881.44;5077761;28;48302;-76
2022/08/07 02:11:32;;;;;;;;;4.00;4.00;;;;;18.29;44.55;101879.34;5077783;28;46053;-76
2022/08/07 02:13:59;;;;;;;;;5.00;5.00;;;;;18.27;45.13;101884.09;5079081;28;45136;-77
2022/08/07 02:16:25;;;;;;;;;3.67;3.67;;;;;18.32;45.31;101896.97;5086078;27;45312;-77
2022/08/07 02:18:53;;;;;;;;;4.33;4.33;;;;;18.26;44.85;101893.19;5084612;27;45361;-77
2022/08/07 02:21:19;;;;;;;;;4.33;4.33;;;;;18.26;44.96;101895.06;5079024;28;45341;-77
2022/08/07 02:23:45;;;;;;;;;4.00;4.00;;;;;18.22;45.13;101896.47;5079238;28;45550;-77
2022/08/07 02:26:13;;;;;;;;;6.67;5.33;;;;;18.21;45.00;101901.03;5078972;28;45536;-77
2022/08/07 02:28:39;;;;;;;;;4.00;3.00;;;;;18.18;45.49;101898.75;5078969;28;45621;-76
2022/08/07 02:31:06;;;;;;;;;6.67;4.67;;;;;18.21;45.67;101906.41;5079035;28;45454;-77
2022/08/07 02:33:33;;;;;;;;;4.33;4.00;;;;;18.26;45.92;101909.34;5079106;28;45344;-77
2022/08/07 02:36:00;;;;;;;;;4.67;4.67;;;;;18.20;45.68;101903.91;5079115;28;45242;-77
2022/08/07 02:38:29;;;;;;;;;6.67;4.00;;;;;18.19;45.80;101889.63;5078631;28;46202;-77
2022/08/07 02:40:57;;;;;;;;;4.67;4.67;;;;;18.18;45.86;101893.34;5079132;28;45469;-77
2022/08/07 02:43:23;;;;;;;;;3.00;3.00;;;;;18.17;45.88;101894.41;5078750;28;45447;-76
2022/08/07 02:45:52;;;;;;;;;5.33;5.00;;;;;18.16;45.45;101893.56;5078936;28;45484;-76
2022/08/07 02:48:17;;;;;;;;;6.00;6.00;;;;;18.15;45.69;101883.00;5089263;27;47119;-77
2022/08/07 02:50:47;;;;;;;;;3.33;3.33;;;;;18.12;46.08;101880.69;5079040;28;45426;-76
2022/08/07 02:53:18;;;;;;;;;5.33;5.00;;;;;18.12;46.14;101888.75;5078821;28;45408;-76
2022/08/07 02:55:47;;;;;;;;;5.00;5.00;;;;;18.02;46.28;101876.44;5079080;28;45268;-77
2022/08/07 02:58:19;;;;;;;;;4.00;3.33;;;;;18.00;46.03;101881.22;5081827;28;45347;-76
2022/08/07 03:00:49;;;;;;;;;4.33;4.33;;;;;18.00;46.05;101891.97;5097558;27;45865;-76
2022/08/07 03:03:16;;;;;;;;;4.00;4.00;;;;;17.96;46.12;101881.81;5082584;28;45291;-77
2022/08/07 03:05:43;;;;;;;;;5.00;5.00;;;;;17.93;46.32;101874.97;5095802;27;47426;-76
2022/08/07 03:08:09;;;;;;;;;3.67;3.67;;;;;17.94;46.03;101876.63;5082072;28;45382;-76
2022/08/07 03:10:35;;;;;;;;;4.33;4.33;;;;;17.87;46.54;101875.75;5081904;28;45319;-77
2022/08/07 03:13:01;;;;;;;;;6.00;4.67;;;;;17.84;47.04;101870.75;5086096;27;45505;-76
2022/08/07 03:15:27;;;;;;;;;5.00;4.00;;;;;17.78;46.90;101869.69;5080319;28;47469;-77
2022/08/07 03:17:53;;;;;;;;;7.00;5.00;;;;;17.73;46.83;101874.78;5094214;27;46826;-76
2022/08/07 03:20:20;;;;;;;;;4.00;4.00;;;;;17.70;47.60;101881.41;5081779;27;45267;-76
2022/08/07 03:22:46;;;;;;;;;4.00;4.00;;;;;17.71;47.71;101880.38;5092237;27;45343;-76
2022/08/07 03:25:11;;;;;;;;;5.00;3.33;;;;;17.71;46.96;101879.53;5081994;28;45605;-76
2022/08/07 03:27:40;;;;;;;;;5.00;4.67;;;;;17.71;47.36;101883.06;5081855;28;45524;-76
2022/08/07 03:30:06;;;;;;;;;5.33;4.00;;;;;17.71;47.37;101887.59;5081447;28;45410;-76
2022/08/07 03:32:37;;;;;;;;;4.00;4.00;;;;;17.67;47.38;101881.78;5081906;28;45323;-76
2022/08/07 03:35:07;;;;;;;;;3.67;3.67;;;;;17.64;47.68;101885.69;5095121;27;46162;-76
2022/08/07 03:37:35;;;;;;;;;5.00;4.33;;;;;17.62;47.80;101887.75;5081266;28;46201;-77
2022/08/07 03:40:03;;;;;;;;;5.00;4.00;;;;;17.58;48.03;101883.78;5081492;28;45313;-76
2022/08/07 03:42:31;;;;;;;;;3.00;3.00;;;;;17.56;48.42;101885.81;5081947;28;45306;-76
2022/08/07 03:44:56;;;;;;;;;4.33;4.00;;;;;17.53;48.05;101880.81;5081206;28;45815;-76
2022/08/07 03:47:22;;;;;;;;;4.00;4.00;;;;;17.53;48.12;101892.41;5081824;28;45336;-76
2022/08/07 03:49:47;;;;;;;;;5.00;5.00;;;;;17.49;48.56;101888.47;5090476;27;45344;-76
2022/08/07 03:52:16;;;;;;;;;5.33;5.33;;;;;17.47;48.51;101885.13;5080283;28;45473;-77
2022/08/07 03:54:41;;;;;;;;;4.00;4.00;;;;;17.41;49.27;101881.34;5080070;28;46542;-76
2022/08/07 03:57:08;;;;;;;;;4.33;4.33;;;;;17.40;49.19;101886.91;5081139;28;45215;-76
2022/08/07 03:59:34;;;;;;;;;5.00;5.00;;;;;17.36;49.08;101880.28;5086444;27;45928;-76
2022/08/07 04:02:00;;;;;;;;;5.33;5.00;;;;;17.27;49.25;101883.06;5080032;28;45561;-76
2022/08/07 04:04:26;;;;;;;;;5.00;5.00;;;;;17.33;49.51;101889.53;5081389;27;45320;-77
2022/08/07 04:06:51;;;;;;;;;4.33;4.33;;;;;17.28;49.51;101884.75;5080768;28;45314;-76
2022/08/07 04:09:19;;;;;;;;;5.00;5.00;;;;;17.24;49.67;101875.38;5080983;28;45416;-77
2022/08/07 04:11:45;;;;;;;;;5.00;4.33;;;;;17.19;49.89;101875.16;5081328;28;45798;-76
2022/08/07 04:14:11;;;;;;;;;4.67;4.67;;;;;17.23;49.72;101887.16;5080840;28;45577;-76
2022/08/07 04:16:37;;;;;;;;;4.67;4.67;;;;;17.29;49.82;101881.03;5089403;27;46167;-77
2022/08/07 04:19:04;;;;;;;;;4.67;4.67;;;;;17.25;49.69;101869.03;5084957;27;45330;-77
2022/08/07 04:21:30;;;;;;;;;4.67;4.67;;;;;17.35;49.78;101887.50;5076270;28;45351;-77
2022/08/07 04:23:56;;;;;;;;;4.33;4.33;;;;;17.29;49.74;101881.03;5071180;28;45475;-76
2022/08/07 04:26:21;;;;;;;;;4.00;4.00;;;;;17.26;50.13;101881.41;5080502;28;45404;-77
2022/08/07 04:28:47;;;;;;;;;4.00;4.00;;;;;17.26;49.90;101873.34;5080719;28;45328;-77
2022/08/07 04:31:13;;;;;;;;;7.00;6.00;;;;;17.28;50.29;101870.47;5081027;28;45380;-77
2022/08/07 04:33:40;;;;;;;;;5.67;4.00;;;;;17.25;50.23;101879.75;5079420;28;46277;-77
2022/08/07 04:36:09;;;;;;;;;5.33;5.00;;;;;17.23;50.61;101870.22;5080741;28;45424;-76
2022/08/07 04:38:36;;;;;;;;;5.00;5.00;;;;;17.31;50.26;101886.22;5095240;27;45230;-76
2022/08/07 04:41:01;;;;;;;;;4.00;4.00;;;;;17.31;50.20;101886.22;5081107;28;45311;-77
2022/08/07 04:43:35;;;;;;;;;5.00;5.00;;;;;17.25;50.36;101879.75;5080357;28;45480;-76
2022/08/07 04:46:07;;;;;;;;;6.00;5.00;;;;;17.28;50.55;101886.59;5080955;28;46449;-76
2022/08/07 04:48:51;;;;;;;;;4.00;4.00;;;;;17.31;50.67;101890.75;5079601;28;46175;-76
2022/08/07 04:51:36;;;;;;;;;4.67;4.33;;;;;17.33;50.93;101894.09;5080862;28;45425;-76
2022/08/07 04:54:24;;;;;;;;;5.00;5.00;;;;;17.21;51.05;101891.88;5081885;27;46104;-76
2022/08/07 04:57:01;;;;;;;;;5.67;5.67;;;;;17.21;50.79;101889.19;5072065;28;48164;-75
2022/08/07 04:59:35;;;;;;;;;5.67;5.00;;;;;17.15;51.45;101895.38;5084360;27;46112;-76
2022/08/07 05:02:22;;;;;;;;;6.00;6.00;;;;;17.08;51.73;101891.75;5079015;28;45402;-76
2022/08/07 05:04:56;;;;;;;;;5.00;5.00;;;;;17.06;51.76;101891.91;5078874;28;47495;-76
2022/08/07 05:07:26;;;;;;;;;6.00;6.00;;;;;17.08;51.61;101897.13;5080024;28;45478;-75
2022/08/07 05:09:51;;;;;;;;;5.67;5.67;;;;;17.09;51.67;101902.31;5080157;28;45263;-76
2022/08/07 05:12:25;;;;;;;;;5.00;5.00;;;;;17.08;51.68;101902.50;5092115;27;45333;-76
2022/08/07 05:14:52;;;;;;;;;5.33;5.00;;;;;17.15;51.55;101912.28;5078631;28;46378;-76
2022/08/07 05:17:20;;;;;;;;;6.00;6.00;;;;;17.16;51.90;101908.56;5090911;27;48037;-76
2022/08/07 05:19:51;;;;;;;;;4.33;4.33;;;;;17.20;51.57;101900.13;5079013;28;45457;-76
2022/08/07 05:22:20;;;;;;;;;6.00;6.00;;;;;17.12;51.70;101893.06;5078948;28;45370;-77
2022/08/07 05:24:47;;;;;;;;;4.33;4.33;;;;;17.22;51.88;101915.06;5079710;28;45323;-77
2022/08/07 05:27:15;;;;;;;;;7.00;6.00;;;;;17.25;51.94;101913.84;5080112;28;46376;-76
2022/08/07 05:29:42;;;;;;;;;6.00;6.00;;;;;17.23;51.95;101900.59;5078267;28;45267;-76
2022/08/07 05:32:10;;;;;;;;;5.33;5.33;;;;;17.28;51.51;101908.94;5080102;28;45424;-77
2022/08/07 05:34:36;;;;;;;;;7.67;6.33;;;;;17.29;51.80;101915.13;5078393;28;46454;-76
2022/08/07 05:37:02;;;;;;;;;6.00;6.00;;;;;17.29;51.53;101910.59;5079833;28;45645;-76
2022/08/07 05:39:29;;;;;;;;;6.67;6.67;;;;;17.29;51.83;101918.66;5079853;28;45541;-76
2022/08/07 05:41:54;;;;;;;;;5.33;5.33;;;;;17.34;51.91;101917.25;5094112;27;45386;-76
2022/08/07 05:44:21;;;;;;;;;7.00;7.00;;;;;17.35;51.64;101933.16;5079665;28;45337;-76
2022/08/07 05:46:50;;;;;;;;;6.67;6.67;;;;;17.32;52.22;101928.19;5065217;28;45404;-76
2022/08/07 05:49:16;;;;;;;;;4.67;4.00;;;;;17.33;51.96;101931.72;5079693;28;45357;-76
2022/08/07 05:51:42;;;;;;;;;5.00;5.00;;;;;17.33;51.82;101929.03;5079627;28;45498;-77
2022/08/07 05:54:09;;;;;;;;;10.67;8.67;;;;;17.40;52.02;101929.91;5078051;28;47126;-77
2022/08/07 05:56:35;;;;;;;;;7.33;6.67;;;;;17.41;52.06;101932.41;5078162;28;47394;-76
2022/08/07 05:59:04;;;;;;;;;5.33;5.33;;;;;17.42;51.77;101933.25;5079165;28;45284;-76
2022/08/07 06:01:31;;;;;;;;;5.33;5.33;;;;;17.45;51.96;101927.47;5079659;28;45341;-76
2022/08/07 06:03:58;;;;;;;;;6.00;6.00;;;;;17.41;52.67;101921.66;5079268;28;46104;-76
2022/08/07 06:06:25;;;;;;;;;5.00;5.00;;;;;17.43;52.45;101924.16;5079472;28;45468;-76
2022/08/07 06:08:51;;;;;;;;;6.00;6.00;;;;;17.51;52.09;101928.59;5090838;27;45366;-76
2022/08/07 06:11:17;;;;;;;;;6.00;6.00;;;;;17.52;52.26;101931.09;5079392;28;45394;-76
2022/08/07 06:13:42;;;;;;;;;4.00;4.00;;;;;17.54;52.23;101926.31;5088776;27;45498;-76
2022/08/07 06:16:09;;;;;;;;;5.33;5.33;;;;;17.59;52.42;101932.97;5072985;27;54157;-76
2022/08/07 06:18:35;;;;;;;;;6.33;6.33;;;;;17.66;52.41;101937.41;5086488;27;45234;-78
2022/08/07 06:21:02;;;;;;;;;5.00;5.00;;;;;17.74;52.20;101949.88;5070608;28;45359;-78
2022/08/07 06:23:28;;;;;;;;;5.00;4.67;;;;;17.80;52.05;101945.59;5077047;28;46885;-76
2022/08/07 06:25:55;;;;;;;;;6.67;6.67;;;;;17.83;52.00;101936.28;5078567;28;45471;-78
2022/08/07 06:28:21;;;;;;;;;5.33;5.00;;;;;17.82;51.93;101934.63;5075923;28;45364;-78
2022/08/07 06:30:46;;;;;;;;;5.67;5.67;;;;;17.87;51.95;101935.72;5060676;28;45482;-74
2022/08/07 06:33:11;;;;;;;;;4.33;4.33;;;;;17.87;52.11;101937.59;5062151;28;45433;-75
2022/08/07 06:35:37;;;;;;;;;7.00;7.00;;;;;17.99;52.53;101925.25;5062031;28;46099;-74
2022/08/07 06:38:03;;;;;;;;;5.00;5.00;;;;;18.10;52.20;101931.13;5062468;28;45717;-75
2022/08/07 06:40:41;;;;;;;;;6.00;6.00;;;;;18.19;52.37;101929.16;5066473;28;45437;-74
2022/08/07 06:43:09;;;;;;;;;4.67;4.00;;;;;18.23;52.02;101931.25;5065829;28;45465;-75
2022/08/07 06:45:35;;;;;;;;;4.33;4.33;;;;;18.27;52.27;101923.63;5082261;28;46273;-75
2022/08/07 06:48:01;;;;;;;;;6.00;4.33;;;;;18.34;51.76;101924.50;5082461;28;45357;-74
2022/08/07 06:50:28;;;;;;;;;6.00;4.33;;;;;18.41;51.24;101919.97;5078546;28;45358;-75
2022/08/07 06:52:55;;;;;;;;;4.33;4.33;;;;;18.42;51.66;101924.34;5072214;28;45434;-78
2022/08/07 06:55:24;;;;;;;;;7.33;6.00;;;;;18.49;51.33;101929.75;5082833;28;46698;-76
2022/08/07 06:57:52;;;;;;;;;6.33;5.00;;;;;18.59;51.20;101933.97;5082474;28;45540;-75
2022/08/07 07:00:18;;;;;;;;;6.00;6.00;;;;;18.66;51.36;101926.75;5080910;28;45341;-76
2022/08/07 07:02:45;;;;;;;;;3.00;3.00;;;;;18.75;51.47;101925.56;5081167;28;46114;-75
2022/08/07 07:05:11;;;;;;;;;5.00;4.33;;;;;18.86;51.08;101931.41;5082358;28;45374;-76
2022/08/07 07:07:36;;;;;;;;;5.67;5.67;;;;;18.91;50.44;101923.53;5096631;27;46068;-76
2022/08/07 07:10:03;;;;;;;;;5.67;4.67;;;;;19.01;50.52;101934.75;5081136;28;45871;-76
2022/08/07 07:12:39;;;;;;;;;4.00;4.00;;;;;19.08;50.23;101934.81;5081955;28;45386;-75
2022/08/07 07:15:07;;;;;;;;;5.33;5.33;;;;;19.13;50.22;101935.03;5082221;28;45368;-76
2022/08/07 07:17:49;;;;;;;;;6.67;5.00;;;;;19.19;49.93;101922.63;5095514;27;45207;-76
2022/08/07 07:20:36;;;;;;;;;4.00;3.00;;;;;19.23;49.94;101926.56;5068804;28;45439;-75
2022/08/07 07:23:05;;;;;;;;;4.33;4.33;;;;;19.33;50.26;101925.34;5081802;28;45467;-75
2022/08/07 07:25:31;;;;;;;;;5.00;5.00;;;;;19.36;49.91;101912.28;5086935;27;47300;-75
2022/08/07 07:28:19;;;;;;;;;5.00;4.33;;;;;19.55;49.78;101926.81;5081412;28;45333;-75
2022/08/07 07:30:49;;;;;;;;;6.00;5.00;;;;;19.66;50.01;101925.38;5080737;28;45368;-75
2022/08/07 07:33:16;;;;;;;;;3.00;3.00;;;;;19.66;49.81;101913.75;5081720;28;45410;-75
2022/08/07 07:35:46;;;;;;;;;5.00;3.00;;;;;19.76;48.83;101922.28;5081692;28;45854;-75
2022/08/07 07:38:13;;;;;;;;;4.00;4.00;;;;;19.88;48.89;101932.44;5075557;28;45366;-76
2022/08/07 07:40:41;;;;;;;;;3.00;3.00;;;;;19.92;48.50;101929.13;5079244;28;45227;-75
2022/08/07 07:43:09;;;;;;;;;5.00;4.00;;;;;19.98;48.21;101919.38;5080790;28;45369;-75
2022/08/07 07:45:38;;;;;;;;;3.00;3.00;;;;;20.11;47.76;101917.72;5081422;28;46448;-75
2022/08/07 07:48:05;;;;;;;;;5.00;4.33;;;;;20.20;47.92;101911.03;5081596;28;45334;-75
2022/08/07 07:50:31;;;;;;;;;3.00;3.00;;;;;20.28;47.79;101916.25;5081606;28;45453;-75
2022/08/07 07:52:58;;;;;;;;;2.00;2.00;;;;;20.41;47.39;101912.66;5083133;27;45970;-75
2022/08/07 07:55:26;;;;;;;;;3.33;3.00;;;;;20.53;46.84;101912.03;5081580;27;46205;-75
2022/08/07 07:57:52;;;;;;;;;4.00;2.00;;;;;20.58;46.71;101900.56;5095967;27;45390;-75
2022/08/07 08:00:18;;;;;;;;;1.67;1.67;;;;;20.66;46.14;101906.56;5081425;28;45299;-75
2022/08/07 08:02:48;;;;;;;;;2.00;2.00;;;;;20.79;45.94;101905.69;5094101;27;47063;-75
2022/08/07 08:05:16;;;;;;;;;3.00;3.00;;;;;20.89;45.66;101902.50;5081410;28;46796;-74
2022/08/07 08:07:43;;;;;;;;;2.67;2.67;;;;;20.95;45.20;101906.25;5081383;28;45218;-74
2022/08/07 08:10:11;;;;;;;;;2.00;2.00;;;;;21.03;45.17;101895.19;5079239;28;45360;-74
2022/08/07 08:12:38;;;;;;;;;2.00;2.00;;;;;21.12;44.89;101898.47;5077102;28;45617;-75
2022/08/07 08:15:04;;;;;;;;;3.67;2.67;;;;;21.23;44.28;101899.66;5072532;28;45374;-77
2022/08/07 08:17:33;;;;;;;;;3.00;3.00;;;;;21.27;43.87;101898.16;5077613;27;45291;-75
2022/08/07 08:20:04;;;;;;;;;22.00;22.00;;;;;21.40;43.87;101896.44;5081197;28;45319;-75
2022/08/07 08:28:04;;;;;;;;;1.33;1.33;;;;;21.74;42.50;101888.03;5078618;28;46441;-77
2022/08/07 08:30:33;;;;;;;;;0.33;0.33;;;;;21.86;42.12;101886.28;5077529;28;45532;-78
2022/08/07 08:33:01;;;;;;;;;1.00;1.00;;;;;22.03;42.20;101891.13;5078774;28;45349;-77
2022/08/07 08:35:28;;;;;;;;;2.33;2.33;;;;;22.11;41.34;101887.28;5080656;28;46796;-77
2022/08/07 08:37:59;;;;;;;;;2.00;2.00;;;;;22.16;40.35;101873.91;5078478;28;45375;-76
2022/08/07 08:40:51;;;;;;;;;1.67;1.67;;;;;22.28;40.86;101885.66;5079856;28;45418;-77
2022/08/07 08:43:22;;;;;;;;;2.00;2.00;;;;;22.33;40.98;101882.28;5069493;28;45898;-77
2022/08/07 08:46:03;;;;;;;;;1.67;1.67;;;;;22.49;40.42;101877.28;5078983;28;45623;-76
2022/08/07 08:48:40;;;;;;;;;1.67;1.67;;;;;22.52;39.95;101885.78;5078713;27;45288;-79
2022/08/07 08:51:18;;;;;;;;;1.00;1.00;;;;;22.62;40.05;101877.16;5077079;28;45316;-76
2022/08/07 08:54:14;;;;;;;;;1.33;1.33;;;;;22.72;39.81;101875.78;5059207;27;45530;-78
2022/08/07 08:56:46;;;;;;;;;2.00;2.00;;;;;22.80;39.59;101876.28;5070154;28;47571;-77
2022/08/07 08:59:31;;;;;;;;;2.00;2.00;;;;;22.89;39.60;101878.66;5064049;28;45387;-76
2022/08/07 09:02:05;;;;;;;;;1.67;1.67;;;;;22.94;39.83;101865.25;5068203;28;45232;-77
2022/08/07 09:04:52;;;;;;;;;2.00;2.00;;;;;23.00;39.61;101867.06;5081177;28;45334;-78
2022/08/07 09:07:31;;;;;;;;;1.00;1.00;;;;;23.12;39.30;101866.25;5082118;28;46264;-77
2022/08/07 09:10:16;;;;;;;;;1.00;1.00;;;;;23.23;38.65;101872.78;5080713;28;46301;-78
2022/08/07 09:13:18;;;;;;;;;1.00;1.00;;;;;23.34;38.81;101877.38;5078931;28;45814;-77
2022/08/07 09:15:49;;;;;;;;;1.00;1.00;;;;;23.43;37.80;101867.03;5079496;27;47558;-77
2022/08/07 09:18:48;;;;;;;;;2.67;2.00;;;;;23.43;37.59;101857.03;5073260;27;47779;-77
2022/08/07 09:21:27;;;;;;;;;1.00;1.00;;;;;23.56;37.36;101869.53;5067861;28;45290;-76
2022/08/07 09:24:04;;;;;;;;;2.00;2.00;;;;;23.64;37.24;101872.97;5076881;28;45499;-76
2022/08/07 09:26:52;;;;;;;;;1.00;1.00;;;;;23.73;36.71;101879.69;5077440;28;45337;-76
2022/08/07 09:29:54;;;;;;;;;1.00;1.00;;;;;23.80;37.10;101876.88;5061712;28;48423;-76
2022/08/07 09:32:57;;;;;;;;;1.00;1.00;;;;;23.88;36.64;101867.56;5080281;28;45571;-76
2022/08/07 09:35:53;;;;;;;;;2.00;2.00;;;;;23.94;36.58;101870.13;5073302;28;45298;-77
2022/08/07 09:38:58;;;;;;;;;1.00;1.00;;;;;24.07;36.13;101858.19;5079929;28;45519;-76
2022/08/07 09:41:42;;;;;;;;;2.00;2.00;;;;;24.11;35.91;101861.25;5075834;28;48225;-77
2022/08/07 09:44:25;;;;;;;;;4.00;3.00;;;;;24.21;35.62;101857.94;5067457;28;45500;-76
2022/08/07 09:47:03;;;;;;;;;3.00;2.00;;;;;24.28;35.80;101864.09;5068235;28;45345;-77
2022/08/07 09:50:06;;;;;;;;;2.00;2.00;;;;;24.34;34.68;101859.59;5092200;27;47565;-77
2022/08/07 09:53:03;;;;;;;;;1.00;1.00;;;;;24.40;35.01;101855.91;5080542;27;46272;-77
2022/08/07 09:56:20;;;;;;;;;1.00;1.00;;;;;24.51;35.09;101861.56;5061085;28;45332;-77
2022/08/07 09:59:07;;;;;;;;;2.00;1.33;;;;;24.61;34.23;101860.91;5042294;28;45369;-77
2022/08/07 10:01:53;;;;;;;;;2.00;2.00;;;;;24.70;34.44;101854.03;5080306;27;45289;-77
2022/08/07 10:04:34;;;;;;;;;3.00;3.00;;;;;24.79;34.40;101849.84;5078864;28;45883;-78
2022/08/07 10:07:32;;;;;;;;;6.67;6.67;;;;;24.99;34.06;101853.22;5068511;28;45662;-77
2022/08/07 10:10:12;;;;;;;;;1.33;1.33;;;;;25.11;33.91;101847.69;5077214;28;45433;-77
2022/08/07 10:13:00;;;;;;;;;0.33;0.33;;;;;25.16;33.47;101853.22;5078826;27;45587;-77
2022/08/07 10:16:00;;;;;;;;;2.33;2.33;;;;;25.20;33.49;101838.06;5076221;28;47486;-81
2022/08/07 10:18:56;;;;;;;;;1.67;1.67;;;;;25.40;33.09;101834.00;5076903;28;45399;-78
2022/08/07 10:21:43;;;;;;;;;1.00;1.00;;;;;25.51;32.96;101837.72;5079617;28;45813;-77
2022/08/07 10:24:45;;;;;;;;;1.67;1.67;;;;;25.67;33.33;101844.22;5079016;28;45802;-77
2022/08/07 10:27:52;;;;;;;;;2.00;2.00;;;;;25.82;32.41;101830.00;5079641;27;45387;-75
2022/08/07 10:30:26;;;;;;;;;3.67;1.00;;;;;25.96;31.99;101814.13;5079294;28;45384;-77
2022/08/07 10:33:07;;;;;;;;;2.00;2.00;;;;;26.17;31.82;101823.38;5074431;28;45354;-77
2022/08/07 10:35:32;;;;;;;;;2.00;2.00;;;;;26.34;31.89;101827.97;5065613;28;46904;-77
2022/08/07 10:38:23;;;;;;;;;4.00;4.00;;;;;26.54;31.55;101823.78;5078935;28;46059;-76
2022/08/07 10:41:13;;;;;;;;;2.00;2.00;;;;;26.70;31.29;101822.06;5079108;27;45401;-77
2022/08/07 10:43:47;;;;;;;;;2.00;2.00;;;;;26.96;31.32;101828.56;5060624;28;45284;-76
2022/08/07 10:46:18;;;;;;;;;1.00;1.00;;;;;27.09;31.24;101816.41;5077544;28;47066;-76
2022/08/07 10:49:09;;;;;;;;;1.00;1.00;;;;;27.27;31.43;101822.56;5077433;28;47038;-76
2022/08/07 10:51:46;;;;;;;;;2.00;2.00;;;;;27.42;30.45;101807.38;5079091;28;45224;-78
2022/08/07 10:54:49;;;;;;;;;1.00;1.00;;;;;27.69;29.94;101820.94;5079331;28;45362;-77
2022/08/07 10:57:33;;;;;;;;;3.00;2.33;;;;;27.88;30.28;101814.19;5080266;28;45622;-76
2022/08/07 11:00:33;;;;;;;;;1.33;1.33;;;;;28.04;29.62;101815.91;5087881;27;48778;-76
2022/08/07 11:03:14;;;;;;;;;2.00;2.00;;;;;28.21;29.38;101809.41;5072590;28;45289;-77
2022/08/07 11:06:03;;;;;;;;;3.00;3.00;;;;;28.28;29.04;101804.50;5067082;27;45954;-77
2022/08/07 11:08:58;;;;;;;;;2.00;2.00;;;;;28.33;29.46;101800.97;5060953;28;45332;-76
2022/08/07 11:11:30;;;;;;;;;3.00;1.33;;;;;28.42;28.81;101802.09;5059233;28;47393;-77
2022/08/07 11:14:06;;;;;;;;;1.33;1.33;;;;;28.56;29.27;101796.13;5077943;28;45426;-78
2022/08/07 11:16:48;;;;;;;;;1.00;1.00;;;;;28.68;28.74;101793.13;5087378;27;45382;-76
2022/08/07 11:19:29;;;;;;;;;2.00;2.00;;;;;28.73;28.65;101783.00;5087239;27;45732;-78
2022/08/07 11:22:06;;;;;;;;;3.00;3.00;;;;;28.85;28.42;101777.25;5070655;28;46142;-77
2022/08/07 11:24:52;;;;;;;;;2.00;1.67;;;;;28.98;28.39;101778.66;5069884;28;45430;-78
2022/08/07 11:27:22;;;;;;;;;3.00;3.00;;;;;29.09;28.34;101776.72;5082348;28;45543;-78
2022/08/07 11:30:05;;;;;;;;;3.00;3.00;;;;;29.28;28.20;101773.41;5094533;27;46139;-78
2022/08/07 11:32:55;;;;;;;;;1.00;1.00;;;;;29.42;28.42;101772.81;5070881;28;46802;-78
2022/08/07 11:35:27;;;;;;;;;2.00;2.00;;;;;29.51;27.82;101765.69;5082650;28;45659;-78
2022/08/07 11:38:40;;;;;;;;;4.00;2.67;;;;;29.72;28.19;101771.13;5086336;28;45464;-78
2022/08/07 11:41:20;;;;;;;;;2.33;2.33;;;;;29.77;27.39;101768.34;5050238;28;45457;-79
2022/08/07 11:44:05;;;;;;;;;3.33;2.67;;;;;29.86;27.31;101763.09;5078774;28;47450;-78
2022/08/07 11:46:45;;;;;;;;;4.00;4.00;;;;;29.94;27.07;101761.69;5071969;28;45431;-79
2022/08/07 11:49:40;;;;;;;;;2.00;2.00;;;;;30.04;27.28;101764.38;5082193;28;45375;-77
2022/08/07 11:52:21;;;;;;;;;2.67;2.67;;;;;30.06;26.07;101753.94;5069459;27;45349;-78
2022/08/07 11:54:49;;;;;;;;;2.33;2.33;;;;;30.08;26.68;101759.94;5081718;28;46313;-75